createdAt,value
2022-10-13T00:01:21.981Z,9.00
2022-10-13T00:03:50.868Z,9.50
2022-10-13T00:06:26.586Z,9.60
2022-10-13T00:08:56.746Z,8.80
2022-10-13T00:11:29.949Z,9.20
2022-10-13T00:14:00.796Z,10.00
2022-10-13T00:16:31.358Z,10.10
2022-10-13T00:18:59.667Z,9.20
2022-10-13T00:21:28.468Z,9.20
2022-10-13T00:23:57.446Z,8.80
2022-10-13T00:26:26.605Z,9.10
2022-10-13T00:28:56.562Z,8.60
2022-10-13T00:31:32.361Z,8.30
2022-10-13T00:34:01.503Z,9.20
2022-10-13T00:36:33.158Z,9.30
2022-10-13T00:39:01.200Z,9.50
2022-10-13T00:41:29.362Z,8.40
2022-10-13T00:44:01.734Z,7.70
2022-10-13T00:46:35.981Z,9.20
2022-10-13T00:49:17.274Z,9.10
2022-10-13T00:51:50.362Z,8.50
2022-10-13T00:54:23.039Z,8.30
2022-10-13T00:56:52.201Z,8.00
2022-10-13T00:59:23.798Z,8.20
2022-10-13T01:01:55.131Z,8.20
2022-10-13T01:04:27.099Z,8.80
2022-10-13T01:06:56.914Z,8.20
2022-10-13T01:09:25.078Z,9.00
2022-10-13T01:12:19.615Z,9.00
2022-10-13T01:15:06.894Z,12.70
2022-10-13T01:17:50.013Z,15.50
2022-10-13T01:20:17.899Z,12.60
2022-10-13T01:22:56.168Z,11.80
2022-10-13T01:25:39.310Z,10.50
2022-10-13T01:28:35.274Z,9.60
2022-10-13T01:31:19.432Z,8.40
2022-10-13T01:33:57.798Z,8.40
2022-10-13T01:36:50.759Z,9.60
2022-10-13T01:39:30.291Z,9.50
2022-10-13T01:42:11.673Z,9.70
2022-10-13T01:44:46.502Z,9.10
2022-10-13T01:47:17.851Z,9.50
2022-10-13T01:49:47.805Z,9.50
2022-10-13T01:52:20.595Z,9.90
2022-10-13T01:54:53.119Z,9.70
2022-10-13T01:57:47.405Z,9.50
2022-10-13T02:00:19.060Z,10.00
2022-10-13T02:03:08.836Z,10.20
2022-10-13T02:06:22.590Z,10.10
2022-10-13T02:09:14.409Z,10.20
2022-10-13T02:11:51.749Z,10.90
2022-10-13T02:14:26.622Z,11.10
2022-10-13T02:16:59.592Z,12.40
2022-10-13T02:19:28.922Z,12.20
2022-10-13T02:21:58.482Z,12.50
2022-10-13T02:24:26.891Z,11.40
2022-10-13T02:26:55.275Z,11.20
2022-10-13T02:29:23.648Z,12.00
2022-10-13T02:31:54.936Z,11.50
2022-10-13T02:34:23.023Z,11.30
2022-10-13T02:36:50.934Z,11.20
2022-10-13T02:39:18.900Z,11.70
2022-10-13T02:41:46.867Z,11.40
2022-10-13T02:44:14.841Z,11.40
2022-10-13T02:46:42.806Z,11.50
2022-10-13T02:49:11.091Z,11.80
2022-10-13T02:51:40.368Z,11.10
2022-10-13T02:54:08.861Z,10.90
2022-10-13T02:56:36.836Z,11.50
2022-10-13T02:59:04.903Z,11.20
2022-10-13T03:01:33.259Z,11.00
2022-10-13T03:04:01.244Z,11.60
2022-10-13T03:06:29.148Z,11.40
2022-10-13T03:08:57.100Z,11.20
2022-10-13T03:11:25.936Z,11.10
2022-10-13T03:13:54.447Z,11.00
2022-10-13T03:16:22.426Z,11.00
2022-10-13T03:18:50.621Z,11.30
2022-10-13T03:21:18.562Z,11.30
2022-10-13T03:23:46.534Z,11.30
2022-10-13T03:26:15.725Z,10.40
2022-10-13T03:28:43.892Z,10.40
2022-10-13T03:31:12.942Z,10.30
2022-10-13T03:33:41.264Z,10.60
2022-10-13T03:36:10.769Z,10.20
2022-10-13T03:38:39.717Z,10.40
2022-10-13T03:41:15.579Z,9.60
2022-10-13T03:43:45.600Z,9.90
2022-10-13T03:46:17.491Z,10.20
2022-10-13T03:48:47.637Z,9.20
2022-10-13T03:51:19.435Z,9.80
2022-10-13T03:53:48.878Z,10.00
2022-10-13T03:56:20.113Z,9.70
2022-10-13T03:59:00.073Z,9.80
2022-10-13T04:01:29.945Z,9.40
2022-10-13T04:03:59.296Z,9.70
2022-10-13T04:06:27.349Z,9.70
2022-10-13T04:08:55.725Z,9.60
2022-10-13T04:11:24.004Z,9.40
2022-10-13T04:13:53.377Z,9.30
2022-10-13T04:16:24.139Z,9.10
2022-10-13T04:18:57.741Z,8.90
2022-10-13T04:21:26.934Z,8.90
2022-10-13T04:23:59.941Z,9.00
2022-10-13T04:26:30.183Z,8.60
2022-10-13T04:28:59.143Z,8.20
2022-10-13T04:31:29.426Z,8.40
2022-10-13T04:33:58.244Z,8.50
2022-10-13T04:36:27.127Z,9.00
2022-10-13T04:38:55.999Z,8.20
2022-10-13T04:41:24.301Z,8.70
2022-10-13T04:43:53.470Z,8.60
2022-10-13T04:46:25.637Z,8.40
2022-10-13T04:48:55.809Z,8.90
2022-10-13T04:51:27.391Z,8.90
2022-10-13T04:53:59.397Z,8.30
2022-10-13T04:56:28.253Z,9.00
2022-10-13T04:59:00.868Z,8.80
2022-10-13T05:01:28.830Z,9.20
2022-10-13T05:04:02.240Z,9.50
2022-10-13T05:06:34.699Z,9.40
2022-10-13T05:09:04.099Z,10.00
2022-10-13T05:11:33.096Z,10.00
2022-10-13T05:14:02.699Z,10.00
2022-10-13T05:16:31.386Z,10.10
2022-10-13T05:18:59.454Z,10.20
2022-10-13T05:21:29.128Z,10.20
2022-10-13T05:23:58.507Z,9.90
2022-10-13T05:26:29.355Z,10.50
2022-10-13T05:29:01.158Z,10.10
2022-10-13T05:31:34.770Z,9.50
2022-10-13T05:34:03.004Z,9.60
2022-10-13T05:36:33.575Z,10.20
2022-10-13T05:39:04.691Z,9.80
2022-10-13T05:41:32.674Z,9.90
2022-10-13T05:44:07.275Z,9.20
2022-10-13T05:46:36.097Z,16.40
2022-10-13T05:49:04.814Z,16.20
2022-10-13T05:51:40.214Z,14.80
2022-10-13T05:54:30.254Z,13.80
2022-10-13T05:57:06.943Z,15.50
2022-10-13T05:59:40.797Z,14.20
2022-10-13T06:02:12.561Z,13.90
2022-10-13T06:04:46.520Z,12.30
2022-10-13T06:07:14.595Z,12.00
2022-10-13T06:09:43.379Z,11.50
2022-10-13T06:12:11.371Z,11.00
2022-10-13T06:14:40.053Z,11.30
2022-10-13T06:17:11.197Z,10.30
2022-10-13T06:19:39.790Z,11.30
2022-10-13T06:22:09.064Z,10.60
2022-10-13T06:24:37.316Z,12.00
2022-10-13T06:27:06.549Z,11.10
2022-10-13T06:29:34.580Z,11.40
2022-10-13T06:32:02.588Z,10.70
2022-10-13T06:34:30.560Z,11.70
2022-10-13T06:36:58.531Z,14.30
2022-10-13T06:39:26.699Z,12.60
2022-10-13T06:41:55.562Z,12.80
2022-10-13T06:44:32.498Z,12.90
2022-10-13T06:47:05.324Z,12.30
2022-10-13T06:49:33.528Z,11.70
2022-10-13T06:52:01.697Z,11.20
2022-10-13T06:54:29.870Z,11.80
2022-10-13T06:56:58.041Z,11.10
2022-10-13T06:59:27.875Z,11.50
2022-10-13T07:01:55.936Z,11.50
2022-10-13T07:04:26.042Z,11.70
2022-10-13T07:06:56.224Z,11.50
2022-10-13T07:09:24.537Z,11.80
2022-10-13T07:11:52.507Z,11.50
2022-10-13T07:14:20.476Z,11.20
2022-10-13T07:16:48.757Z,11.10
2022-10-13T07:19:16.726Z,10.30
2022-10-13T07:21:44.813Z,9.90
2022-10-13T07:24:13.064Z,9.10
2022-10-13T07:26:41.028Z,9.20
2022-10-13T07:29:09.882Z,9.30
2022-10-13T07:31:37.991Z,8.90
2022-10-13T07:34:06.858Z,8.70
2022-10-13T07:36:35.638Z,8.40
2022-10-13T07:39:04.350Z,8.80
2022-10-13T07:41:32.732Z,8.20
2022-10-13T07:44:00.798Z,8.10
2022-10-13T07:46:29.895Z,8.40
2022-10-13T07:48:58.381Z,8.60
2022-10-13T07:51:26.445Z,8.20
2022-10-13T07:53:54.717Z,7.70
2022-10-13T07:56:22.688Z,8.10
2022-10-13T07:58:50.556Z,8.00
2022-10-13T08:01:18.564Z,8.10
2022-10-13T08:03:49.937Z,7.60
2022-10-13T08:06:19.488Z,7.70
2022-10-13T08:08:48.777Z,7.20
2022-10-13T08:11:18.391Z,7.00
2022-10-13T08:13:49.014Z,6.90
2022-10-13T08:16:22.613Z,6.00
2022-10-13T08:18:50.789Z,6.20
2022-10-13T08:24:14.052Z,5.90
2022-10-13T08:26:43.228Z,5.70
2022-10-13T08:29:27.242Z,5.80
2022-10-13T08:31:56.131Z,4.80
2022-10-13T08:34:25.058Z,5.10
2022-10-13T08:36:54.837Z,5.20
2022-10-13T08:39:24.629Z,5.30
2022-10-13T08:41:54.484Z,5.70
2022-10-13T08:45:06.260Z,5.70
2022-10-13T08:47:27.324Z,4.60
2022-10-13T08:50:04.095Z,4.70
2022-10-13T08:53:04.646Z,4.80
2022-10-13T08:55:51.125Z,5.00
2022-10-13T08:58:25.887Z,4.80
2022-10-13T09:01:09.186Z,5.00
2022-10-13T09:03:57.222Z,4.50
2022-10-13T09:06:34.009Z,4.60
2022-10-13T09:09:07.047Z,5.00
2022-10-13T09:11:41.105Z,5.20
2022-10-13T09:14:12.957Z,5.00
2022-10-13T09:16:44.300Z,4.90
2022-10-13T09:19:21.081Z,5.00
2022-10-13T09:21:55.967Z,4.70
2022-10-13T09:24:26.285Z,4.50
2022-10-13T09:27:07.252Z,4.80
2022-10-13T09:29:40.463Z,4.60
2022-10-13T09:32:14.395Z,4.60
2022-10-13T09:34:43.196Z,4.90
2022-10-13T09:37:21.393Z,4.90
2022-10-13T09:40:13.629Z,4.90
2022-10-13T09:42:41.705Z,5.20
2022-10-13T09:45:21.755Z,4.80
2022-10-13T09:47:54.636Z,4.40
2022-10-13T09:50:26.086Z,4.60
2022-10-13T09:53:31.431Z,4.60
2022-10-13T09:56:08.821Z,4.40
2022-10-13T10:01:27.692Z,4.40
2022-10-13T10:03:57.715Z,3.80
2022-10-13T10:06:27.830Z,3.70
2022-10-13T10:09:45.151Z,3.70
2022-10-13T10:12:18.240Z,4.00
2022-10-13T10:14:48.564Z,3.30
2022-10-13T10:17:28.615Z,3.80
2022-10-13T10:20:34.790Z,3.70
2022-10-13T10:23:21.284Z,3.60
2022-10-13T10:25:54.271Z,3.40
2022-10-13T10:29:01.918Z,4.50
2022-10-13T10:31:35.666Z,3.80
2022-10-13T10:34:14.836Z,4.50
2022-10-13T10:36:51.058Z,3.60
2022-10-13T10:39:36.913Z,3.10
2022-10-13T10:42:17.863Z,2.90
2022-10-13T10:44:49.370Z,3.10
2022-10-13T10:48:12.131Z,2.90
2022-10-13T10:50:40.259Z,2.80
2022-10-13T10:53:29.661Z,3.00
2022-10-13T10:56:17.188Z,3.50
2022-10-13T10:59:00.415Z,3.20
2022-10-13T11:01:37.887Z,3.30
2022-10-13T11:04:21.034Z,3.50
2022-10-13T11:06:49.107Z,2.90
2022-10-13T11:09:42.973Z,3.20
2022-10-13T11:12:20.247Z,3.90
2022-10-13T11:14:54.947Z,2.90
2022-10-13T11:17:31.605Z,2.80
2022-10-13T11:20:00.536Z,2.70
2022-10-13T11:22:30.290Z,3.00
2022-10-13T11:25:08.281Z,2.90
2022-10-13T11:27:36.234Z,2.90
2022-10-13T11:30:05.172Z,3.40
2022-10-13T11:32:41.996Z,3.00
2022-10-13T11:35:10.790Z,3.70
2022-10-13T11:38:06.815Z,3.30
2022-10-13T11:40:55.564Z,3.40
2022-10-13T11:43:42.375Z,3.20
2022-10-13T11:46:46.184Z,4.00
2022-10-13T11:49:36.270Z,4.00
2022-10-13T11:52:39.874Z,4.00
2022-10-13T11:55:42.757Z,4.10
2022-10-13T11:58:14.863Z,4.90
2022-10-13T12:01:06.867Z,4.50
2022-10-13T12:03:43.636Z,4.70
2022-10-13T12:06:34.339Z,4.80
2022-10-13T12:09:16.235Z,5.20
2022-10-13T12:11:44.923Z,5.20
2022-10-13T12:14:24.362Z,5.00
2022-10-13T12:16:54.291Z,5.00
2022-10-13T12:19:25.916Z,5.30
2022-10-13T12:21:56.559Z,5.10
2022-10-13T12:24:28.202Z,4.90
2022-10-13T12:26:57.699Z,4.80
2022-10-13T12:29:34.857Z,5.00
2022-10-13T12:32:19.856Z,4.90
2022-10-13T12:34:48.539Z,5.00
2022-10-13T12:37:33.577Z,5.00
2022-10-13T12:40:02.612Z,5.00
2022-10-13T12:42:33.130Z,5.10
2022-10-13T12:45:02.530Z,5.00
2022-10-13T12:47:49.750Z,5.10
2022-10-13T12:50:29.905Z,4.90
2022-10-13T12:53:22.261Z,4.60
2022-10-13T12:56:02.195Z,4.60
2022-10-13T12:58:35.814Z,4.50
2022-10-13T13:01:21.231Z,4.60
2022-10-13T13:03:56.240Z,4.40
2022-10-13T13:06:30.488Z,4.70
2022-10-13T13:09:31.809Z,8.10
2022-10-13T13:12:10.498Z,4.70
2022-10-13T13:14:39.786Z,4.40
2022-10-13T13:17:07.661Z,5.50
2022-10-13T13:19:36.653Z,5.00
2022-10-13T13:22:06.374Z,5.40
2022-10-13T13:24:40.079Z,5.20
2022-10-13T13:27:36.566Z,5.00
2022-10-13T13:30:09.896Z,4.40
2022-10-13T13:32:37.884Z,4.80
2022-10-13T13:35:06.520Z,4.60
2022-10-13T13:37:40.447Z,4.30
2022-10-13T13:40:16.299Z,4.30
2022-10-13T13:42:44.373Z,4.30
2022-10-13T13:45:14.386Z,4.50
2022-10-13T13:47:43.136Z,4.50
2022-10-13T13:50:27.012Z,3.90
2022-10-13T13:52:58.566Z,4.40
2022-10-13T13:55:27.863Z,5.10
2022-10-13T13:57:57.061Z,5.00
2022-10-13T14:00:25.134Z,4.80
2022-10-13T14:02:57.713Z,4.60
2022-10-13T14:05:26.100Z,5.20
2022-10-13T14:07:58.184Z,4.80
2022-10-13T14:10:26.936Z,4.90
2022-10-13T14:12:54.905Z,5.30
2022-10-13T14:15:27.259Z,5.40
2022-10-13T14:17:57.088Z,5.40
2022-10-13T14:20:24.955Z,5.20
2022-10-13T14:22:52.925Z,6.00
2022-10-13T14:25:21.199Z,5.40
2022-10-13T14:27:49.164Z,5.30
2022-10-13T14:30:17.234Z,6.30
2022-10-13T14:32:45.205Z,5.70
2022-10-13T14:35:13.170Z,5.60
2022-10-13T14:37:41.141Z,6.00
2022-10-13T14:40:09.610Z,6.00
2022-10-13T14:42:39.429Z,5.60
2022-10-13T14:45:09.349Z,5.90
2022-10-13T14:47:37.213Z,5.80
2022-10-13T14:50:06.101Z,4.90
2022-10-13T14:52:34.276Z,4.80
2022-10-13T14:55:02.385Z,5.40
2022-10-13T14:57:30.423Z,5.30
2022-10-13T15:00:01.874Z,6.60
2022-10-13T15:02:31.066Z,5.50
2022-10-13T15:04:59.054Z,5.20
2022-10-13T15:07:27.099Z,5.10
2022-10-13T15:10:04.858Z,5.20
2022-10-13T15:12:34.299Z,5.40
2022-10-13T15:15:02.885Z,5.20
2022-10-13T15:17:33.313Z,5.60
2022-10-13T15:20:01.277Z,5.20
2022-10-13T15:22:29.242Z,5.60
2022-10-13T15:24:57.522Z,5.70
2022-10-13T15:27:25.695Z,6.10
2022-10-13T15:29:53.662Z,6.30
2022-10-13T15:32:21.968Z,5.80
2022-10-13T15:34:56.049Z,6.70
2022-10-13T15:37:24.119Z,6.70
2022-10-13T15:39:56.853Z,5.80
2022-10-13T15:42:25.586Z,5.60
2022-10-13T15:45:10.751Z,5.70
2022-10-13T15:47:39.340Z,5.70
2022-10-13T15:50:09.574Z,5.80
2022-10-13T15:52:40.354Z,5.90
2022-10-13T15:55:10.823Z,5.90
2022-10-13T15:57:38.994Z,5.60
2022-10-13T16:00:08.783Z,6.00
2022-10-13T16:02:44.150Z,6.50
2022-10-13T16:05:13.194Z,6.70
2022-10-13T16:07:41.655Z,6.80
2022-10-13T16:10:12.435Z,6.80
2022-10-13T16:12:45.479Z,7.20
2022-10-13T16:15:18.221Z,7.90
2022-10-13T16:17:46.541Z,9.40
2022-10-13T16:20:14.567Z,10.60
2022-10-13T16:22:42.543Z,9.40
2022-10-13T16:25:12.193Z,8.30
2022-10-13T16:27:44.026Z,7.90
2022-10-13T16:30:12.977Z,9.30
2022-10-13T16:32:41.398Z,9.10
2022-10-13T16:35:10.089Z,9.30
2022-10-13T16:37:38.229Z,10.30
2022-10-13T16:40:06.709Z,9.90
2022-10-13T16:42:34.986Z,9.50
2022-10-13T16:45:03.668Z,9.80
2022-10-13T16:47:31.738Z,11.00
2022-10-13T16:49:59.710Z,13.60
2022-10-13T16:52:27.578Z,14.30
2022-10-13T16:54:55.540Z,15.30
2022-10-13T16:57:25.661Z,17.40
2022-10-13T16:59:53.790Z,14.10
2022-10-13T17:02:21.907Z,15.60
2022-10-13T17:04:50.076Z,16.40
2022-10-13T17:07:18.348Z,16.50
2022-10-13T17:09:47.555Z,18.50
2022-10-13T17:12:15.618Z,19.30
2022-10-13T17:14:43.592Z,19.30
2022-10-13T17:17:11.560Z,17.10
2022-10-13T17:19:39.471Z,14.20
2022-10-13T17:22:07.389Z,13.20
2022-10-13T17:24:35.360Z,14.90
2022-10-13T17:27:03.328Z,17.50
2022-10-13T17:29:31.395Z,19.90
2022-10-13T17:31:59.366Z,17.60
2022-10-13T17:34:27.333Z,17.20
2022-10-13T17:36:55.515Z,17.70
2022-10-13T17:39:23.785Z,18.50
2022-10-13T17:41:51.751Z,17.40
2022-10-13T17:44:21.051Z,17.80
2022-10-13T17:46:52.529Z,19.00
2022-10-13T17:49:20.569Z,24.20
2022-10-13T17:51:52.429Z,23.70
2022-10-13T17:54:21.424Z,30.60
2022-10-13T17:56:49.551Z,31.30
2022-10-13T17:59:18.338Z,27.60
2022-10-13T18:01:46.512Z,23.40
2022-10-13T18:04:17.189Z,21.10
2022-10-13T18:06:45.760Z,20.80
2022-10-13T18:09:17.939Z,18.20
2022-10-13T18:11:50.771Z,18.50
2022-10-13T18:14:21.577Z,18.50
2022-10-13T18:16:51.470Z,18.30
2022-10-13T18:19:21.405Z,18.70
2022-10-13T18:21:49.860Z,18.60
2022-10-13T18:24:17.927Z,19.20
2022-10-13T18:26:46.528Z,18.40
2022-10-13T18:29:14.582Z,17.20
2022-10-13T18:31:42.980Z,17.30
2022-10-13T18:34:14.251Z,16.80
2022-10-13T18:36:47.806Z,15.80
2022-10-13T18:39:25.245Z,13.50
2022-10-13T18:41:55.839Z,14.20
2022-10-13T18:44:27.279Z,13.10
2022-10-13T18:46:56.650Z,13.50
2022-10-13T18:49:31.333Z,13.00
2022-10-13T18:52:01.031Z,13.20
2022-10-13T18:54:30.383Z,13.30
2022-10-13T18:56:58.686Z,13.40
2022-10-13T18:59:26.761Z,13.50
2022-10-13T19:01:54.723Z,12.80
2022-10-13T19:04:23.104Z,12.50
2022-10-13T19:06:51.789Z,13.50
2022-10-13T19:09:21.662Z,13.10
2022-10-13T19:11:49.672Z,14.00
2022-10-13T19:14:19.175Z,13.70
2022-10-13T19:16:47.140Z,14.10
2022-10-13T19:19:15.320Z,14.80
2022-10-13T19:21:43.488Z,15.70
2022-10-13T19:24:12.103Z,15.80
2022-10-13T19:26:40.041Z,16.90
2022-10-13T19:29:11.618Z,17.90
2022-10-13T19:31:41.532Z,15.90
2022-10-13T19:34:11.625Z,15.40
2022-10-13T19:36:43.061Z,14.30
2022-10-13T19:39:23.638Z,14.20
2022-10-13T19:41:54.241Z,13.90
2022-10-13T19:44:24.081Z,13.60
2022-10-13T19:46:53.459Z,14.00
2022-10-13T19:49:25.174Z,13.60
2022-10-13T19:51:54.148Z,14.20
2022-10-13T19:54:23.276Z,13.80
2022-10-13T19:56:51.466Z,14.10
2022-10-13T19:59:19.912Z,13.20
2022-10-13T20:01:48.464Z,13.00
2022-10-13T20:04:18.712Z,12.80
2022-10-13T20:06:48.292Z,13.00
2022-10-13T20:09:18.035Z,12.70
2022-10-13T20:11:47.805Z,12.30
2022-10-13T20:14:17.572Z,12.70
2022-10-13T20:16:45.996Z,12.40
2022-10-13T20:19:16.317Z,12.40
2022-10-13T20:21:48.196Z,11.40
2022-10-13T20:24:16.247Z,12.90
2022-10-13T20:26:44.217Z,12.50
2022-10-13T20:29:12.273Z,12.40
2022-10-13T20:31:40.462Z,11.70
2022-10-13T20:34:10.733Z,11.40
2022-10-13T20:36:39.423Z,11.90
2022-10-13T20:39:09.073Z,11.80
2022-10-13T20:41:37.253Z,11.70
2022-10-13T20:44:06.241Z,12.10
2022-10-13T20:46:34.926Z,10.90
2022-10-13T20:49:13.010Z,12.20
2022-10-13T20:51:43.103Z,13.00
2022-10-13T20:54:13.825Z,11.90
2022-10-13T20:56:41.969Z,12.10
2022-10-13T20:59:12.588Z,12.10
2022-10-13T21:01:40.756Z,12.10
2022-10-13T21:04:09.646Z,12.40
2022-10-13T21:06:38.105Z,12.10
2022-10-13T21:09:06.929Z,12.60
2022-10-13T21:11:36.729Z,12.50
2022-10-13T21:14:07.135Z,12.70
2022-10-13T21:16:38.432Z,11.80
2022-10-13T21:19:10.051Z,12.40
2022-10-13T21:21:38.341Z,12.40
2022-10-13T21:24:07.898Z,12.20
2022-10-13T21:26:36.440Z,12.00
2022-10-13T21:29:04.893Z,12.00
2022-10-13T21:31:35.619Z,12.00
2022-10-13T21:34:04.131Z,13.30
2022-10-13T21:36:33.090Z,13.70
2022-10-13T21:39:04.103Z,14.30
2022-10-13T21:41:34.460Z,13.90
2022-10-13T21:44:03.364Z,12.90
2022-10-13T21:46:35.337Z,12.90
2022-10-13T21:49:05.820Z,12.40
2022-10-13T21:51:36.477Z,13.60
2022-10-13T21:54:13.661Z,13.10
2022-10-13T21:56:42.358Z,12.80
2022-10-13T21:59:12.770Z,12.10
2022-10-13T22:01:41.832Z,12.20
2022-10-13T22:04:14.847Z,12.40
2022-10-13T22:06:43.207Z,11.50
2022-10-13T22:09:11.397Z,11.00
2022-10-13T22:11:39.818Z,11.70
2022-10-13T22:14:13.999Z,10.80
2022-10-13T22:16:48.306Z,10.70
2022-10-13T22:19:18.294Z,11.20
2022-10-13T22:21:48.641Z,11.70
2022-10-13T22:24:19.688Z,11.50
2022-10-13T22:26:49.706Z,11.50
2022-10-13T22:29:20.705Z,11.10
2022-10-13T22:31:50.760Z,11.50
2022-10-13T22:34:18.750Z,11.30
2022-10-13T22:36:46.697Z,11.60
2022-10-13T22:39:15.201Z,11.40
2022-10-13T22:41:43.970Z,11.10
2022-10-13T22:44:12.818Z,11.10
2022-10-13T22:46:41.027Z,11.50
2022-10-13T22:49:13.610Z,10.90
2022-10-13T22:51:41.725Z,11.00
2022-10-13T22:54:10.049Z,10.50
2022-10-13T22:56:38.018Z,10.50
2022-10-13T22:59:08.266Z,11.30
2022-10-13T23:01:36.491Z,11.50
2022-10-13T23:04:04.994Z,10.90
2022-10-13T23:06:34.525Z,11.40
2022-10-13T23:09:06.630Z,11.50
2022-10-13T23:11:35.559Z,11.90
2022-10-13T23:14:06.491Z,12.00
2022-10-13T23:16:34.872Z,12.10
2022-10-13T23:19:03.819Z,11.90
2022-10-13T23:21:32.034Z,11.00
2022-10-13T23:24:02.795Z,11.70
2022-10-13T23:26:31.612Z,11.50
2022-10-13T23:28:59.768Z,11.80
2022-10-13T23:31:28.833Z,11.70
2022-10-13T23:33:57.508Z,11.40
2022-10-13T23:36:28.652Z,10.90
2022-10-13T23:39:06.963Z,11.80
2022-10-13T23:41:38.005Z,11.40
2022-10-13T23:44:05.973Z,11.30
2022-10-13T23:46:34.140Z,11.50
2022-10-13T23:49:02.111Z,12.10
2022-10-13T23:51:30.592Z,12.00
2022-10-13T23:53:59.243Z,11.60
2022-10-13T23:56:27.712Z,11.70
2022-10-13T23:58:55.731Z,12.20
